createdAt,value
2023-10-01T00:02:29.705Z,60.35
2023-10-01T00:05:06.697Z,60.50
2023-10-01T00:07:41.530Z,60.65
2023-10-01T00:10:15.018Z,60.71
2023-10-01T00:12:49.897Z,60.46
2023-10-01T00:15:25.316Z,60.81
2023-10-01T00:17:58.546Z,60.51
2023-10-01T00:20:36.964Z,60.55
2023-10-01T00:23:11.289Z,60.93
2023-10-01T00:25:44.945Z,60.87
2023-10-01T00:28:18.120Z,60.99
2023-10-01T00:30:51.178Z,61.03
2023-10-01T00:33:24.182Z,60.95
2023-10-01T00:35:57.290Z,60.92
2023-10-01T00:38:32.098Z,60.96
2023-10-01T00:41:08.821Z,61.02
2023-10-01T00:43:44.361Z,61.02
2023-10-01T00:46:18.722Z,61.02
2023-10-01T00:48:54.063Z,61.12
2023-10-01T00:51:27.091Z,60.81
2023-10-01T00:54:04.106Z,61.05
2023-10-01T00:56:37.304Z,61.22
2023-10-01T00:59:11.570Z,61.10
2023-10-01T01:01:45.307Z,61.27
2023-10-01T01:04:20.989Z,61.23
2023-10-01T01:06:55.468Z,61.59
2023-10-01T01:09:30.248Z,61.46
2023-10-01T01:12:06.829Z,61.49
2023-10-01T01:14:39.753Z,61.48
2023-10-01T01:17:13.576Z,61.58
2023-10-01T01:19:54.178Z,60.81
2023-10-01T01:22:35.011Z,61.33
2023-10-01T01:25:12.234Z,61.38
2023-10-01T01:27:45.262Z,61.54
2023-10-01T01:30:20.707Z,61.65
2023-10-01T01:32:56.864Z,61.81
2023-10-01T01:35:30.309Z,62.05
2023-10-01T01:38:05.389Z,61.96
2023-10-01T01:40:41.709Z,62.06
2023-10-01T01:43:22.795Z,62.09
2023-10-01T01:46:01.921Z,62.13
2023-10-01T01:48:38.848Z,62.05
2023-10-01T01:51:11.854Z,62.25
2023-10-01T01:53:48.391Z,62.12
2023-10-01T01:56:20.596Z,62.09
2023-10-01T01:58:53.743Z,62.05
2023-10-01T02:01:27.070Z,62.05
2023-10-01T02:04:01.817Z,61.99
2023-10-01T02:06:35.096Z,61.85
2023-10-01T02:09:14.039Z,62.12
2023-10-01T02:11:47.183Z,61.94
2023-10-01T02:14:33.022Z,61.87
2023-10-01T02:17:14.806Z,61.95
2023-10-01T02:19:48.839Z,61.99
2023-10-01T02:22:22.242Z,62.15
2023-10-01T02:24:57.084Z,62.29
2023-10-01T02:27:30.710Z,62.36
2023-10-01T02:30:22.779Z,62.27
2023-10-01T02:33:10.164Z,62.36
2023-10-01T02:35:43.472Z,62.32
2023-10-01T02:38:34.253Z,62.43
2023-10-01T02:41:11.550Z,62.46
2023-10-01T02:43:43.730Z,62.39
2023-10-01T02:46:17.594Z,62.44
2023-10-01T02:48:50.193Z,62.30
2023-10-01T02:51:33.745Z,62.35
2023-10-01T02:54:07.049Z,62.28
2023-10-01T02:56:54.053Z,62.29
2023-10-01T02:59:26.301Z,62.17
2023-10-01T03:01:59.363Z,62.19
2023-10-01T03:04:35.191Z,62.17
2023-10-01T03:07:08.300Z,61.97
2023-10-01T03:09:41.404Z,62.08
2023-10-01T03:12:36.002Z,62.07
2023-10-01T03:15:25.224Z,61.99
2023-10-01T03:18:00.353Z,62.05
2023-10-01T03:20:55.527Z,62.09
2023-10-01T03:23:28.590Z,62.01
2023-10-01T03:26:04.749Z,61.95
2023-10-01T03:28:54.958Z,62.08
2023-10-01T03:31:29.708Z,61.87
2023-10-01T03:34:05.492Z,61.78
2023-10-01T03:36:43.863Z,61.73
2023-10-01T03:39:26.828Z,61.71
2023-10-01T03:42:12.363Z,61.72
2023-10-01T03:45:20.696Z,61.76
2023-10-01T03:47:58.925Z,61.64
2023-10-01T03:50:32.992Z,61.73
2023-10-01T03:53:12.392Z,61.65
2023-10-01T03:55:48.013Z,61.79
2023-10-01T03:58:27.182Z,61.68
2023-10-01T04:01:16.673Z,61.80
2023-10-01T04:03:49.851Z,61.73
2023-10-01T04:06:23.103Z,61.80
2023-10-01T04:08:57.153Z,61.77
2023-10-01T04:11:51.447Z,61.92
2023-10-01T04:14:24.811Z,61.85
2023-10-01T04:17:06.031Z,61.84
2023-10-01T04:19:42.051Z,61.81
2023-10-01T04:22:15.041Z,61.93
2023-10-01T04:25:02.027Z,61.98
2023-10-01T04:27:36.101Z,61.89
2023-10-01T04:30:11.532Z,61.95
2023-10-01T04:32:47.896Z,61.80
2023-10-01T04:35:22.465Z,61.92
2023-10-01T04:37:55.526Z,62.00
2023-10-01T04:40:34.612Z,62.07
2023-10-01T04:43:12.353Z,62.03
2023-10-01T04:45:46.731Z,61.85
2023-10-01T04:48:23.634Z,61.32
2023-10-01T04:50:56.840Z,61.35
2023-10-01T04:53:30.256Z,61.49
2023-10-01T04:56:07.058Z,61.33
2023-10-01T04:58:42.333Z,61.46
2023-10-01T05:01:18.864Z,61.52
2023-10-01T05:03:55.465Z,61.69
2023-10-01T05:06:31.146Z,61.70
2023-10-01T05:09:08.640Z,61.74
2023-10-01T05:11:41.614Z,61.64
2023-10-01T05:14:16.243Z,61.63
2023-10-01T05:16:50.801Z,61.64
2023-10-01T05:19:26.180Z,61.56
2023-10-01T05:21:59.325Z,61.71
2023-10-01T05:24:36.526Z,61.61
2023-10-01T05:27:10.569Z,61.67
2023-10-01T05:29:46.558Z,61.71
2023-10-01T05:32:20.329Z,61.53
2023-10-01T05:34:54.594Z,61.03
2023-10-01T05:37:37.731Z,61.42
2023-10-01T05:40:16.683Z,61.36
2023-10-01T05:42:50.719Z,61.52
2023-10-01T05:45:38.328Z,61.56
2023-10-01T05:48:19.844Z,61.62
2023-10-01T05:50:54.415Z,61.78
2023-10-01T05:53:28.060Z,61.72
2023-10-01T05:56:06.716Z,61.14
2023-10-01T05:58:40.929Z,61.21
2023-10-01T06:01:18.141Z,61.45
2023-10-01T06:03:51.434Z,61.31
2023-10-01T06:06:26.516Z,61.04
2023-10-01T06:09:10.385Z,60.98
2023-10-01T06:11:49.877Z,60.44
2023-10-01T06:14:37.378Z,60.65
2023-10-01T06:17:12.325Z,60.86
2023-10-01T06:19:45.451Z,60.92
2023-10-01T06:22:24.734Z,60.86
2023-10-01T06:24:58.027Z,60.77
2023-10-01T06:27:32.113Z,60.58
2023-10-01T06:30:08.713Z,60.80
2023-10-01T06:32:43.502Z,60.72
2023-10-01T06:35:20.808Z,60.42
2023-10-01T06:37:55.144Z,60.29
2023-10-01T06:40:34.060Z,60.18
2023-10-01T06:43:08.301Z,60.10
2023-10-01T06:45:41.467Z,60.15
2023-10-01T06:48:16.755Z,60.04
2023-10-01T06:50:50.774Z,59.87
2023-10-01T06:53:45.058Z,60.01
2023-10-01T06:56:18.306Z,59.37
2023-10-01T06:59:08.719Z,59.57
2023-10-01T07:01:49.466Z,59.50
2023-10-01T07:04:25.073Z,59.33
2023-10-01T07:06:58.867Z,59.26
2023-10-01T07:09:35.974Z,58.83
2023-10-01T07:12:10.913Z,59.12
2023-10-01T07:14:47.076Z,58.94
2023-10-01T07:17:24.856Z,58.81
2023-10-01T07:20:01.749Z,59.09
2023-10-01T07:22:39.585Z,59.08
2023-10-01T07:25:29.869Z,59.25
2023-10-01T07:28:03.358Z,59.03
2023-10-01T07:30:46.834Z,59.05
2023-10-01T07:33:22.411Z,58.87
2023-10-01T07:36:01.867Z,58.58
2023-10-01T07:38:48.765Z,58.36
2023-10-01T07:41:26.044Z,58.19
2023-10-01T07:44:09.246Z,58.20
2023-10-01T07:46:43.720Z,58.00
2023-10-01T07:49:20.287Z,57.92
2023-10-01T07:51:53.424Z,57.74
2023-10-01T07:54:29.913Z,57.62
2023-10-01T07:57:09.484Z,57.36
2023-10-01T07:59:44.443Z,56.89
2023-10-01T08:02:22.980Z,56.73
2023-10-01T08:05:01.706Z,56.08
2023-10-01T08:07:41.406Z,55.92
2023-10-01T08:10:20.916Z,55.79
2023-10-01T08:13:07.498Z,55.60
2023-10-01T08:15:40.841Z,55.85
2023-10-01T08:18:35.944Z,55.88
2023-10-01T08:21:16.883Z,55.98
2023-10-01T08:23:50.031Z,56.00
2023-10-01T08:26:40.774Z,55.92
2023-10-01T08:29:16.628Z,56.09
2023-10-01T08:32:10.432Z,55.98
2023-10-01T08:35:02.811Z,55.84
2023-10-01T08:37:38.850Z,55.69
2023-10-01T08:40:16.180Z,55.57
2023-10-01T08:42:49.195Z,55.23
2023-10-01T08:45:35.658Z,55.11
2023-10-01T08:48:09.501Z,54.94
2023-10-01T08:50:46.366Z,54.92
2023-10-01T08:53:19.543Z,54.38
2023-10-01T08:56:07.542Z,54.37
2023-10-01T08:58:49.916Z,53.82
2023-10-01T09:01:24.656Z,53.90
2023-10-01T09:04:19.592Z,52.92
2023-10-01T09:07:00.477Z,51.84
2023-10-01T09:09:53.081Z,50.93
2023-10-01T09:12:26.165Z,49.84
2023-10-01T09:15:00.491Z,48.55
2023-10-01T09:17:58.051Z,46.83
2023-10-01T09:20:40.399Z,45.23
2023-10-01T09:23:13.365Z,44.42
2023-10-01T09:26:01.162Z,44.11
2023-10-01T09:28:39.035Z,44.35
2023-10-01T09:31:27.837Z,44.70
2023-10-01T09:34:30.811Z,44.68
2023-10-01T09:37:04.964Z,45.04
2023-10-01T09:39:42.479Z,45.77
2023-10-01T09:42:29.565Z,46.20
2023-10-01T09:45:26.018Z,46.45
2023-10-01T09:48:11.809Z,47.27
2023-10-01T09:50:48.595Z,47.59
2023-10-01T09:53:26.378Z,47.94
2023-10-01T09:56:01.914Z,48.19
2023-10-01T09:58:35.530Z,48.32
2023-10-01T10:01:10.268Z,48.87
2023-10-01T10:03:43.781Z,49.13
2023-10-01T10:06:26.207Z,48.71
2023-10-01T10:09:06.400Z,48.65
2023-10-01T10:11:42.180Z,48.44
2023-10-01T10:14:47.052Z,47.89
2023-10-01T10:17:27.003Z,48.40
2023-10-01T10:20:41.403Z,48.58
2023-10-01T10:23:17.838Z,47.81
2023-10-01T10:25:50.809Z,47.27
2023-10-01T10:28:27.641Z,47.01
2023-10-01T10:31:31.325Z,47.14
2023-10-01T10:34:23.295Z,45.34
2023-10-01T10:36:59.065Z,43.14
2023-10-01T10:40:23.774Z,40.54
2023-10-01T10:43:23.233Z,37.25
2023-10-01T10:46:00.327Z,35.17
2023-10-01T10:49:01.379Z,35.58
2023-10-01T10:51:45.268Z,34.94
2023-10-01T10:54:38.384Z,35.61
2023-10-01T10:57:26.727Z,35.60
2023-10-01T11:00:00.079Z,35.91
2023-10-01T11:02:44.311Z,36.55
2023-10-01T11:05:21.470Z,37.65
2023-10-01T11:08:00.330Z,37.97
2023-10-01T11:10:46.092Z,38.78
2023-10-01T11:13:28.645Z,39.10
2023-10-01T11:16:15.302Z,39.26
2023-10-01T11:18:49.328Z,39.73
2023-10-01T11:21:25.459Z,40.16
2023-10-01T11:24:02.035Z,40.00
2023-10-01T11:26:34.990Z,39.89
2023-10-01T11:29:12.271Z,39.98
2023-10-01T11:31:52.114Z,39.88
2023-10-01T11:34:28.203Z,39.95
2023-10-01T11:37:12.943Z,40.66
2023-10-01T11:39:51.626Z,40.70
2023-10-01T11:42:37.225Z,41.12
2023-10-01T11:45:31.380Z,41.45
2023-10-01T11:48:08.487Z,41.83
2023-10-01T11:50:51.741Z,42.06
2023-10-01T11:53:30.447Z,42.81
2023-10-01T11:56:03.584Z,42.49
2023-10-01T11:58:36.639Z,42.90
2023-10-01T12:01:13.449Z,42.93
2023-10-01T12:03:59.394Z,43.13
2023-10-01T12:06:35.588Z,42.95
2023-10-01T12:09:08.674Z,43.14
2023-10-01T12:11:42.438Z,43.90
2023-10-01T12:14:19.277Z,43.63
2023-10-01T12:16:55.464Z,43.85
2023-10-01T12:19:28.688Z,44.29
2023-10-01T12:22:07.534Z,44.63
2023-10-01T12:24:46.483Z,44.70
2023-10-01T12:30:32.061Z,44.67
2023-10-01T12:33:05.570Z,45.11
2023-10-01T12:35:40.102Z,45.41
2023-10-01T12:38:25.275Z,45.72
2023-10-01T12:40:57.434Z,45.83
2023-10-01T12:43:40.829Z,45.81
2023-10-01T12:46:15.434Z,45.34
2023-10-01T12:49:11.255Z,45.34
2023-10-01T12:51:49.764Z,45.75
2023-10-01T12:54:26.771Z,45.71
2023-10-01T12:57:10.601Z,45.98
2023-10-01T12:59:45.898Z,45.33
2023-10-01T13:02:29.893Z,45.32
2023-10-01T13:05:21.392Z,45.20
2023-10-01T13:07:57.925Z,44.96
2023-10-01T13:10:35.832Z,44.92
2023-10-01T13:13:10.137Z,45.15
2023-10-01T13:15:43.309Z,45.43
2023-10-01T13:18:19.319Z,45.56
2023-10-01T13:21:01.170Z,45.57
2023-10-01T13:23:42.666Z,45.51
2023-10-01T13:26:25.872Z,45.53
2023-10-01T13:29:02.040Z,45.65
2023-10-01T13:31:41.717Z,45.72
2023-10-01T13:34:23.634Z,45.07
2023-10-01T13:37:13.411Z,45.06
2023-10-01T13:40:06.626Z,44.75
2023-10-01T13:42:57.196Z,44.04
2023-10-01T13:45:47.789Z,44.07
2023-10-01T13:48:38.290Z,44.05
2023-10-01T13:51:30.138Z,43.16
2023-10-01T13:54:22.918Z,43.04
2023-10-01T13:57:13.663Z,43.02
2023-10-01T14:00:04.326Z,43.15
2023-10-01T14:02:55.701Z,42.65
2023-10-01T14:05:46.070Z,42.77
2023-10-01T14:08:38.258Z,42.74
2023-10-01T14:11:12.739Z,42.93
2023-10-01T14:13:49.278Z,43.29
2023-10-01T14:16:25.037Z,43.57
2023-10-01T14:19:14.698Z,44.14
2023-10-01T14:21:53.404Z,44.44
2023-10-01T14:24:28.012Z,44.36
2023-10-01T14:27:04.065Z,44.86
2023-10-01T14:29:37.058Z,44.91
2023-10-01T14:32:12.581Z,45.26
2023-10-01T14:34:45.671Z,45.35
2023-10-01T14:37:18.718Z,45.46
2023-10-01T14:39:53.019Z,45.86
2023-10-01T14:42:25.987Z,46.08
2023-10-01T14:45:06.282Z,46.66
2023-10-01T14:47:44.021Z,46.72
2023-10-01T14:50:18.324Z,47.07
2023-10-01T14:52:51.996Z,47.57
2023-10-01T14:55:26.313Z,47.89
2023-10-01T14:57:59.273Z,48.11
2023-10-01T15:00:34.117Z,47.98
2023-10-01T15:03:10.873Z,48.24
2023-10-01T15:05:43.951Z,48.30
2023-10-01T15:08:18.181Z,48.54
2023-10-01T15:10:52.906Z,48.93
2023-10-01T15:13:37.381Z,49.17
2023-10-01T15:16:24.592Z,49.11
2023-10-01T15:19:12.914Z,49.51
2023-10-01T15:21:49.695Z,49.85
2023-10-01T15:24:23.257Z,49.81
2023-10-01T15:27:00.249Z,49.36
2023-10-01T15:29:33.280Z,50.06
2023-10-01T15:32:16.317Z,49.95
2023-10-01T15:34:58.402Z,50.48
2023-10-01T15:37:33.259Z,50.95
2023-10-01T15:40:25.220Z,50.63
2023-10-01T15:43:01.049Z,50.66
2023-10-01T15:45:45.034Z,50.32
2023-10-01T15:48:19.193Z,50.84
2023-10-01T15:50:54.052Z,50.83
2023-10-01T15:53:28.638Z,51.33
2023-10-01T15:56:03.874Z,51.64
2023-10-01T15:58:38.753Z,52.09
2023-10-01T16:01:24.420Z,52.00
2023-10-01T16:04:00.762Z,52.66
2023-10-01T16:06:34.421Z,52.67
2023-10-01T16:09:07.787Z,51.64
2023-10-01T16:11:40.972Z,52.38
2023-10-01T16:14:28.235Z,52.69
2023-10-01T16:17:17.103Z,52.87
2023-10-01T16:19:55.049Z,53.17
2023-10-01T16:22:30.025Z,53.49
2023-10-01T16:25:04.627Z,53.85
2023-10-01T16:27:39.014Z,54.03
2023-10-01T16:30:20.688Z,54.34
2023-10-01T16:32:55.433Z,54.54
2023-10-01T16:35:29.728Z,54.83
2023-10-01T16:38:04.972Z,55.19
2023-10-01T16:40:39.675Z,55.35
2023-10-01T16:43:16.668Z,55.69
2023-10-01T16:45:51.965Z,55.84
2023-10-01T16:48:26.620Z,56.02
2023-10-01T16:51:01.893Z,56.14
2023-10-01T16:53:36.765Z,56.18
2023-10-01T16:56:16.707Z,56.79
2023-10-01T16:58:51.157Z,56.86
2023-10-01T17:01:28.507Z,56.91
2023-10-01T17:04:06.423Z,56.94
2023-10-01T17:06:50.475Z,56.81
2023-10-01T17:09:33.716Z,56.97
2023-10-01T17:12:09.277Z,56.89
2023-10-01T17:14:42.713Z,56.95
2023-10-01T17:17:17.722Z,57.06
2023-10-01T17:19:51.380Z,57.08
2023-10-01T17:22:24.567Z,56.80
2023-10-01T17:25:15.770Z,56.55
2023-10-01T17:27:54.546Z,56.44
2023-10-01T17:30:30.564Z,56.48
2023-10-01T17:33:08.092Z,56.26
2023-10-01T17:35:48.832Z,56.26
2023-10-01T17:38:23.296Z,56.27
2023-10-01T17:40:56.492Z,56.15
2023-10-01T17:43:32.386Z,56.19
2023-10-01T17:46:06.935Z,56.34
2023-10-01T17:48:41.325Z,56.31
2023-10-01T17:51:15.253Z,56.50
2023-10-01T17:53:52.199Z,56.58
2023-10-01T17:56:25.380Z,56.78
2023-10-01T17:59:02.744Z,56.95
2023-10-01T18:01:39.403Z,57.05
2023-10-01T18:04:19.708Z,57.25
2023-10-01T18:06:56.399Z,57.51
2023-10-01T18:09:30.142Z,57.67
2023-10-01T18:12:15.268Z,57.70
2023-10-01T18:14:52.049Z,57.80
2023-10-01T18:17:28.944Z,57.96
2023-10-01T18:20:04.810Z,57.98
2023-10-01T18:22:39.019Z,57.97
2023-10-01T18:25:12.250Z,58.00
2023-10-01T18:27:55.751Z,57.79
2023-10-01T18:30:29.857Z,57.68
2023-10-01T18:33:03.143Z,58.02
2023-10-01T18:35:40.772Z,57.69
2023-10-01T18:38:18.111Z,57.64
2023-10-01T18:40:53.860Z,57.71
2023-10-01T18:43:27.990Z,57.61
2023-10-01T18:46:02.190Z,57.61
2023-10-01T18:48:40.969Z,57.73
2023-10-01T18:51:18.515Z,57.64
2023-10-01T18:53:53.892Z,57.76
2023-10-01T18:56:26.926Z,57.79
2023-10-01T18:59:01.889Z,57.86
2023-10-01T19:01:34.894Z,57.87
2023-10-01T19:04:11.111Z,58.15
2023-10-01T19:06:45.791Z,57.95
2023-10-01T19:09:22.829Z,57.94
2023-10-01T19:11:58.471Z,57.72
2023-10-01T19:14:32.441Z,57.90
2023-10-01T19:17:06.307Z,58.13
2023-10-01T19:19:40.772Z,58.25
2023-10-01T19:22:15.093Z,58.16
2023-10-01T19:24:48.640Z,58.03
2023-10-01T19:27:25.973Z,58.11
2023-10-01T19:29:59.055Z,57.99
2023-10-01T19:32:32.087Z,57.97
2023-10-01T19:35:05.901Z,57.74
2023-10-01T19:37:40.146Z,57.92
2023-10-01T19:40:19.247Z,58.02
2023-10-01T19:42:54.593Z,57.91
2023-10-01T19:45:35.333Z,57.84
2023-10-01T19:48:08.844Z,57.74
2023-10-01T19:50:46.503Z,57.76
2023-10-01T19:53:35.905Z,57.60
2023-10-01T19:56:09.465Z,57.84
2023-10-01T19:58:48.794Z,57.73
2023-10-01T20:01:23.450Z,57.71
2023-10-01T20:04:05.167Z,58.07
2023-10-01T20:06:47.458Z,57.88
2023-10-01T20:09:29.269Z,58.13
2023-10-01T20:12:04.651Z,58.22
2023-10-01T20:14:43.194Z,58.40
2023-10-01T20:17:18.396Z,58.45
2023-10-01T20:19:55.232Z,58.73
2023-10-01T20:22:28.780Z,58.75
2023-10-01T20:25:04.282Z,58.02
2023-10-01T20:27:40.604Z,58.54
2023-10-01T20:30:15.514Z,58.77
2023-10-01T20:32:48.587Z,58.97
2023-10-01T20:35:23.784Z,59.02
2023-10-01T20:37:57.754Z,59.05
2023-10-01T20:40:32.486Z,59.13
2023-10-01T20:43:05.580Z,59.34
2023-10-01T20:45:38.469Z,59.32
2023-10-01T20:48:20.856Z,59.54
2023-10-01T20:50:55.664Z,59.42
2023-10-01T20:53:28.915Z,59.65
2023-10-01T20:56:10.035Z,59.73
2023-10-01T20:58:50.435Z,59.62
2023-10-01T21:01:35.348Z,59.85
2023-10-01T21:04:25.569Z,59.75
2023-10-01T21:07:03.178Z,59.93
2023-10-01T21:09:39.820Z,59.92
2023-10-01T21:12:17.815Z,60.07
2023-10-01T21:14:54.523Z,60.18
2023-10-01T21:17:30.826Z,60.19
2023-10-01T21:20:15.167Z,60.27
2023-10-01T21:22:51.176Z,60.45
2023-10-01T21:25:25.399Z,60.34
2023-10-01T21:28:12.525Z,60.50
2023-10-01T21:30:47.001Z,60.63
2023-10-01T21:33:20.156Z,60.61
2023-10-01T21:35:53.458Z,60.69
2023-10-01T21:38:26.449Z,60.76
2023-10-01T21:41:00.166Z,60.84
2023-10-01T21:43:34.426Z,61.02
2023-10-01T21:46:07.379Z,61.09
2023-10-01T21:48:40.345Z,61.03
2023-10-01T21:51:13.477Z,61.03
2023-10-01T21:53:48.815Z,61.18
2023-10-01T21:56:24.123Z,61.28
2023-10-01T21:58:58.420Z,61.44
2023-10-01T22:01:45.703Z,61.41
2023-10-01T22:04:25.658Z,61.59
2023-10-01T22:07:00.843Z,61.66
2023-10-01T22:09:33.855Z,61.83
2023-10-01T22:12:07.048Z,61.68
2023-10-01T22:14:43.681Z,61.80
2023-10-01T22:17:35.032Z,62.04
2023-10-01T22:20:18.572Z,61.87
2023-10-01T22:22:51.788Z,61.96
2023-10-01T22:25:25.110Z,62.01
2023-10-01T22:28:07.030Z,62.09
2023-10-01T22:30:41.905Z,62.26
2023-10-01T22:33:17.900Z,62.60
2023-10-01T22:35:51.130Z,62.62
2023-10-01T22:38:24.039Z,62.72
2023-10-01T22:40:57.352Z,62.68
2023-10-01T22:43:32.807Z,62.99
2023-10-01T22:46:08.994Z,63.18
2023-10-01T22:48:45.977Z,63.37
2023-10-01T22:51:24.853Z,63.39
2023-10-01T22:54:01.260Z,63.75
2023-10-01T22:56:35.272Z,63.77
2023-10-01T22:59:08.229Z,63.86
2023-10-01T23:01:45.981Z,64.04
2023-10-01T23:04:20.118Z,63.90
2023-10-01T23:06:53.741Z,63.92
2023-10-01T23:09:30.872Z,63.26
2023-10-01T23:12:07.688Z,63.86
2023-10-01T23:14:41.488Z,64.00
2023-10-01T23:17:33.114Z,64.36
2023-10-01T23:20:13.371Z,64.53
2023-10-01T23:22:49.376Z,64.69
2023-10-01T23:25:25.006Z,64.80
2023-10-01T23:28:01.951Z,64.81
2023-10-01T23:30:37.491Z,64.77
2023-10-01T23:33:11.961Z,64.76
2023-10-01T23:36:00.164Z,65.19
2023-10-01T23:38:37.661Z,65.04
2023-10-01T23:41:24.735Z,65.17
2023-10-01T23:44:00.547Z,65.18
2023-10-01T23:46:34.604Z,65.48
2023-10-01T23:49:12.785Z,65.42
2023-10-01T23:51:55.332Z,65.45
2023-10-01T23:54:30.320Z,65.31
2023-10-01T23:57:10.235Z,65.39
2023-10-01T23:59:49.627Z,65.31
